Time;durP1;ratioP1;P1;durP2;ratioP2;P2;SDS_P1;SDS_P2;PMS_P1;PMS_P2;Temp;Humidity;BMP_temperature;BMP_pressure;BME280_temperature;BME280_humidity;BME280_pressure;Samples;Min_cycle;Max_cycle;Signal;HPM_P1;HPM_P2
2023/11/24 00:02:20;;;;;;;30.80;3.47;;;;;;;12.27;100.00;101600.47;5266184;28;20028;-75
2023/11/24 00:04:50;;;;;;;30.58;3.03;;;;;;;12.27;100.00;101611.25;5264594;28;20024;-75
2023/11/24 00:07:21;;;;;;;27.27;3.92;;;;;;;12.18;100.00;101620.25;5266146;28;20020;-75
2023/11/24 00:09:51;;;;;;;23.50;4.28;;;;;;;12.24;100.00;101626.84;5266287;27;20442;-76
2023/11/24 00:12:22;;;;;;;25.80;3.88;;;;;;;12.32;100.00;101616.16;5266533;28;20508;-75
2023/11/24 00:14:52;;;;;;;31.02;3.90;;;;;;;12.48;100.00;101616.22;5269310;28;20028;-75
2023/11/24 00:17:23;;;;;;;25.23;4.20;;;;;;;12.34;100.00;101619.50;5265604;28;20052;-75
2023/11/24 00:19:53;;;;;;;23.33;3.60;;;;;;;12.33;100.00;101615.97;5269150;28;20028;-75
2023/11/24 00:22:24;;;;;;;30.38;4.53;;;;;;;12.36;100.00;101617.53;5268399;28;20069;-75
2023/11/24 00:24:54;;;;;;;23.20;3.15;;;;;;;12.39;100.00;101618.03;5264938;28;20035;-75
2023/11/24 00:27:25;;;;;;;26.90;3.35;;;;;;;12.39;100.00;101611.81;5269222;28;20622;-75
2023/11/24 00:29:56;;;;;;;19.70;4.00;;;;;;;12.34;100.00;101606.91;5265406;28;20457;-75
2023/11/24 00:32:26;;;;;;;26.25;3.28;;;;;;;12.37;100.00;101601.22;5268492;28;20031;-74
2023/11/24 00:34:57;;;;;;;17.35;3.28;;;;;;;12.29;100.00;101601.16;5265839;28;20057;-75
2023/11/24 00:37:28;;;;;;;24.55;3.05;;;;;;;12.37;100.00;101597.69;5268298;28;20315;-75
2023/11/24 00:39:59;;;;;;;18.70;3.45;;;;;;;12.33;100.00;101599.84;5266869;28;20028;-74
2023/11/24 00:42:29;;;;;;;24.40;3.70;;;;;;;12.47;100.00;101600.25;5267081;28;20508;-75
2023/11/24 00:45:00;;;;;;;16.67;3.17;;;;;;;12.43;100.00;101613.19;5261829;28;20023;-76
2023/11/24 00:47:30;;;;;;;23.90;3.60;;;;;;;12.39;100.00;101615.34;5267429;28;20031;-75
2023/11/24 00:50:01;;;;;;;16.95;3.25;;;;;;;12.44;100.00;101613.00;5263266;28;20023;-75
2023/11/24 00:52:31;;;;;;;24.73;3.78;;;;;;;12.53;100.00;101615.75;5268019;28;20059;-75
2023/11/24 00:55:02;;;;;;;28.27;4.35;;;;;;;12.58;100.00;101598.13;5267004;28;20107;-75
2023/11/24 00:57:33;;;;;;;19.35;3.38;;;;;;;12.35;100.00;101592.47;5264818;28;20088;-75
2023/11/24 01:00:08;;;;;;;30.65;4.63;;;;;;;12.46;100.00;101590.50;5264941;28;20036;-74
2023/11/24 01:02:38;;;;;;;24.95;3.10;;;;;;;12.46;100.00;101587.81;5266573;28;20032;-75
2023/11/24 01:05:09;;;;;;;16.77;3.17;;;;;;;12.47;100.00;101584.94;5265304;28;20497;-74
2023/11/24 01:07:40;;;;;;;32.08;4.30;;;;;;;12.57;100.00;101587.53;5267466;28;20382;-75
2023/11/24 01:10:11;;;;;;;24.20;4.05;;;;;;;12.38;100.00;101580.53;5263626;28;20101;-75
2023/11/24 01:12:41;;;;;;;24.15;4.07;;;;;;;12.47;100.00;101584.94;5268484;28;20431;-75
2023/11/24 01:15:12;;;;;;;35.28;5.80;;;;;;;12.55;100.00;101571.53;5266543;28;20400;-75
2023/11/24 01:17:45;;;;;;;30.77;5.45;;;;;;;12.47;100.00;101579.56;5265075;28;20038;-75
2023/11/24 01:20:16;;;;;;;19.70;3.33;;;;;;;12.48;100.00;101570.47;5265910;28;20027;-75
2023/11/24 01:22:46;;;;;;;37.33;3.97;;;;;;;12.44;100.00;101569.09;5263710;27;20104;-75
2023/11/24 01:25:17;;;;;;;27.40;4.32;;;;;;;12.50;100.00;101568.50;5263820;28;20028;-75
2023/11/24 01:27:47;;;;;;;32.92;3.80;;;;;;;12.35;100.00;101564.69;5265980;28;20016;-74
2023/11/24 01:30:18;;;;;;;20.10;3.17;;;;;;;12.33;100.00;101558.63;5265292;28;20035;-75
2023/11/24 01:32:48;;;;;;;24.55;3.13;;;;;;;12.32;100.00;101557.78;5264518;28;20598;-75
2023/11/24 01:35:19;;;;;;;36.08;5.38;;;;;;;12.39;100.00;101560.69;5265959;28;20024;-75
2023/11/24 01:37:49;;;;;;;17.05;3.00;;;;;;;12.40;100.00;101555.16;5265240;28;20115;-75
2023/11/24 01:40:20;;;;;;;22.75;3.58;;;;;;;12.45;100.00;101549.28;5264068;28;20032;-75
2023/11/24 01:42:51;;;;;;;25.90;3.70;;;;;;;12.25;100.00;101555.88;5264399;27;20035;-75
2023/11/24 01:45:21;;;;;;;23.23;3.70;;;;;;;12.44;100.00;101555.66;5267089;28;20045;-75
2023/11/24 01:47:53;;;;;;;38.05;3.88;;;;;;;12.47;100.00;101551.81;5265939;28;20026;-75
2023/11/24 01:50:24;;;;;;;27.73;4.15;;;;;;;12.30;100.00;101562.50;5263262;28;20028;-75
2023/11/24 01:52:54;;;;;;;27.35;3.58;;;;;;;12.23;100.00;101568.66;5265556;28;20384;-75
2023/11/24 01:55:26;;;;;;;25.88;5.22;;;;;;;12.25;100.00;101577.41;5266595;28;20063;-75
2023/11/24 01:57:57;;;;;;;20.35;2.95;;;;;;;12.02;100.00;101585.19;5266549;28;20048;-75
2023/11/24 02:00:27;;;;;;;23.38;3.30;;;;;;;11.93;100.00;101579.75;5267593;28;20059;-74
2023/11/24 02:02:58;;;;;;;27.75;3.13;;;;;;;11.78;100.00;101581.28;5267849;28;20107;-75
2023/11/24 02:05:28;;;;;;;21.60;3.83;;;;;;;11.79;100.00;101582.13;5267552;28;20596;-75
2023/11/24 02:08:06;;;;;;;18.90;2.60;;;;;;;11.72;100.00;101575.69;5263571;28;20106;-74
2023/11/24 02:10:37;;;;;;;45.08;5.45;;;;;;;11.63;100.00;101570.22;5272079;28;20107;-75
2023/11/24 02:13:08;;;;;;;20.30;3.17;;;;;;;11.74;100.00;101573.69;5271232;28;20024;-75
2023/11/24 02:15:38;;;;;;;19.05;3.20;;;;;;;11.83;100.00;101579.00;5273462;28;20084;-74
2023/11/24 02:18:09;;;;;;;22.55;3.97;;;;;;;11.80;100.00;101571.22;5270463;28;20020;-75
2023/11/24 02:20:39;;;;;;;26.20;3.20;;;;;;;11.73;100.00;101572.84;5272544;28;20492;-75
2023/11/24 02:23:11;;;;;;;17.88;3.13;;;;;;;11.81;100.00;101572.91;5271730;28;20032;-75
2023/11/24 02:25:41;;;;;;;21.00;3.22;;;;;;;11.80;100.00;101575.75;5272838;28;20043;-74
2023/11/24 02:28:12;;;;;;;17.13;2.70;;;;;;;11.77;100.00;101576.06;5271528;28;20032;-75
2023/11/24 02:30:42;;;;;;;25.52;3.50;;;;;;;11.46;100.00;101571.09;5270474;27;20027;-74
2023/11/24 02:33:13;;;;;;;18.58;3.97;;;;;;;11.67;100.00;101577.00;5271335;28;20062;-74
2023/11/24 02:35:44;;;;;;;21.75;3.05;;;;;;;11.52;100.00;101573.19;5273155;28;20077;-74
2023/11/24 02:38:14;;;;;;;21.45;3.17;;;;;;;11.73;100.00;101570.16;5270694;28;20027;-74
2023/11/24 02:40:44;;;;;;;29.85;3.83;;;;;;;11.79;100.00;101569.50;5268130;28;20495;-74
2023/11/24 02:43:15;;;;;;;25.95;3.13;;;;;;;11.78;100.00;101567.00;5269861;28;20016;-75
2023/11/24 02:45:45;;;;;;;17.92;2.33;;;;;;;11.78;100.00;101567.00;5272127;27;20030;-74
2023/11/24 02:48:16;;;;;;;17.35;2.95;;;;;;;11.76;100.00;101567.16;5271477;28;20443;-75
2023/11/24 02:50:47;;;;;;;17.98;2.47;;;;;;;11.67;100.00;101547.44;5268611;28;20790;-74
2023/11/24 02:53:17;;;;;;;21.52;3.58;;;;;;;11.67;100.00;101549.28;5271703;28;20032;-74
2023/11/24 02:55:48;;;;;;;18.25;2.67;;;;;;;11.59;100.00;101549.19;5272042;27;20023;-74
2023/11/24 02:58:18;;;;;;;20.27;2.97;;;;;;;11.37;100.00;101539.78;5271715;28;20077;-74
2023/11/24 03:00:49;;;;;;;24.17;3.03;;;;;;;11.29;100.00;101543.22;5270221;28;21175;-75
2023/11/24 03:03:20;;;;;;;18.38;2.85;;;;;;;11.36;100.00;101535.41;5271687;28;20103;-75
2023/11/24 03:05:51;;;;;;;15.68;3.22;;;;;;;11.26;100.00;101531.97;5266934;28;20111;-74
2023/11/24 03:08:23;;;;;;;27.95;3.10;;;;;;;11.24;100.00;101523.22;5272210;28;20070;-74
2023/11/24 03:10:54;;;;;;;18.05;2.50;;;;;;;11.22;100.00;101526.06;5272994;28;20039;-74
2023/11/24 03:13:25;;;;;;;20.38;3.05;;;;;;;11.08;100.00;101523.91;5277440;28;20035;-75
2023/11/24 03:15:55;;;;;;;20.48;2.78;;;;;;;10.95;100.00;101521.63;5278040;28;20471;-74
2023/11/24 03:18:26;;;;;;;16.95;2.55;;;;;;;10.91;100.00;101520.22;5271062;28;20028;-74
2023/11/24 03:20:57;;;;;;;20.23;2.28;;;;;;;10.93;100.00;101520.91;5272471;28;20468;-74
2023/11/24 03:23:29;;;;;;;22.70;3.05;;;;;;;10.80;100.00;101515.91;5276566;27;20024;-74
2023/11/24 03:26:02;;;;;;;29.33;3.38;;;;;;;10.92;100.00;101519.22;5280675;28;20019;-75
2023/11/24 03:28:34;;;;;;;15.90;2.28;;;;;;;10.75;100.00;101526.28;5277461;28;20051;-74
2023/11/24 03:31:05;;;;;;;19.33;2.83;;;;;;;10.88;100.00;101523.19;5270374;28;20400;-74
2023/11/24 03:33:38;;;;;;;17.02;2.47;;;;;;;11.00;100.00;101522.00;5277976;28;20081;-74
2023/11/24 03:36:10;;;;;;;16.70;2.92;;;;;;;10.91;100.00;101514.84;5267762;28;20626;-74
2023/11/24 03:38:41;;;;;;;19.38;2.55;;;;;;;10.91;100.00;101522.06;5272094;28;20020;-74
2023/11/24 03:41:11;;;;;;;25.92;3.72;;;;;;;10.85;100.00;101523.53;5269904;28;20034;-74
2023/11/24 03:43:42;;;;;;;25.70;4.38;;;;;;;10.92;100.00;101519.22;5275714;28;20435;-74
2023/11/24 03:46:12;;;;;;;18.90;3.28;;;;;;;10.80;100.00;101509.72;5275451;28;20062;-74
2023/11/24 03:48:43;;;;;;;19.00;2.67;;;;;;;10.60;100.00;101509.84;5271821;27;20034;-74
2023/11/24 03:51:20;;;;;;;25.65;4.97;;;;;;;10.53;100.00;101500.69;5268246;28;20035;-74
2023/11/24 03:53:50;;;;;;;21.52;2.35;;;;;;;10.52;100.00;101503.53;5271082;28;20499;-74
2023/11/24 03:56:20;;;;;;;14.57;2.55;;;;;;;10.49;100.00;101501.13;5274710;28;20032;-74
2023/11/24 03:58:51;;;;;;;13.10;3.55;;;;;;;10.52;100.00;101492.78;5270250;28;20103;-74
2023/11/24 04:01:22;;;;;;;19.65;2.63;;;;;;;10.31;100.00;101498.41;5270517;28;20057;-75
2023/11/24 04:03:54;;;;;;;13.48;2.55;;;;;;;10.19;100.00;101512.94;5277014;28;20110;-75
2023/11/24 04:06:24;;;;;;;20.23;2.30;;;;;;;9.86;100.00;101505.31;5273975;28;20050;-75
2023/11/24 04:08:55;;;;;;;22.73;3.25;;;;;;;9.77;100.00;101499.97;5267555;28;20024;-76
2023/11/24 04:11:26;;;;;;;17.85;2.67;;;;;;;9.68;100.00;101500.84;5278826;28;20597;-75
2023/11/24 04:13:57;;;;;;;16.15;2.00;;;;;;;9.54;100.00;101502.16;5278409;28;20071;-75
2023/11/24 04:16:29;;;;;;;22.13;2.08;;;;;;;9.58;100.00;101492.81;5269186;28;20111;-75
2023/11/24 04:18:59;;;;;;;16.60;2.03;;;;;;;9.66;100.00;101495.63;5274103;28;20032;-75
2023/11/24 04:21:30;;;;;;;12.15;2.13;;;;;;;9.65;100.00;101501.16;5266335;28;20667;-76
2023/11/24 04:24:00;;;;;;;10.90;1.95;;;;;;;9.58;100.00;101493.66;5271066;28;20115;-75
2023/11/24 04:26:31;;;;;;;19.05;2.80;;;;;;;9.64;100.00;101499.44;5280584;28;20035;-75
2023/11/24 04:29:02;;;;;;;12.35;3.17;;;;;;;9.72;100.00;101495.06;5277596;28;20504;-75
2023/11/24 04:31:33;;;;;;;22.10;2.28;;;;;;;9.88;100.00;101496.28;5279579;28;20027;-75
2023/11/24 04:34:03;;;;;;;14.80;2.08;;;;;;;9.80;100.00;101488.97;5269047;28;20032;-75
2023/11/24 04:36:34;;;;;;;11.90;1.60;;;;;;;9.80;100.00;101486.31;5274225;28;20024;-75
2023/11/24 04:39:05;;;;;;;15.52;2.70;;;;;;;9.88;100.00;101488.25;5265897;28;20093;-75
2023/11/24 04:41:35;;;;;;;18.38;3.45;;;;;;;9.85;100.00;101492.06;5270212;28;20443;-76
2023/11/24 04:44:06;;;;;;;16.52;2.40;;;;;;;9.90;100.00;101483.59;5262008;28;20532;-75
2023/11/24 04:46:37;;;;;;;11.85;2.00;;;;;;;9.79;100.00;101482.78;5270318;28;20041;-75
2023/11/24 04:49:07;;;;;;;12.90;1.90;;;;;;;9.90;100.00;101479.06;5263025;28;20020;-75
2023/11/24 04:51:38;;;;;;;15.30;2.13;;;;;;;9.72;100.00;101480.81;5265806;28;20073;-75
2023/11/24 04:54:09;;;;;;;13.73;1.73;;;;;;;9.82;100.00;101476.28;5278641;28;20015;-75
2023/11/24 04:56:39;;;;;;;10.82;2.38;;;;;;;9.92;100.00;101470.88;5273748;28;20034;-75
2023/11/24 04:59:10;;;;;;;13.93;1.80;;;;;;;9.89;100.00;101463.13;5270742;27;20031;-75
2023/11/24 05:01:40;;;;;;;22.92;2.67;;;;;;;9.89;100.00;101461.31;5270828;28;20023;-75
2023/11/24 05:04:11;;;;;;;13.52;3.13;;;;;;;9.81;100.00;101464.72;5266775;28;20113;-75
2023/11/24 05:06:41;;;;;;;20.40;2.38;;;;;;;9.93;100.00;101460.00;5267929;28;20114;-74
2023/11/24 05:09:12;;;;;;;11.20;2.22;;;;;;;9.87;100.00;101465.97;5273735;28;20039;-75
2023/11/24 05:11:43;;;;;;;16.92;3.83;;;;;;;9.94;100.00;101475.13;5262692;28;20028;-75
2023/11/24 05:14:13;;;;;;;16.20;2.40;;;;;;;9.94;100.00;101466.19;5270032;28;20043;-75
2023/11/24 05:16:44;;;;;;;21.27;3.28;;;;;;;9.83;100.00;101467.22;5270591;28;20381;-74
2023/11/24 05:19:15;;;;;;;11.98;2.20;;;;;;;9.84;100.00;101469.78;5256836;28;20373;-75
2023/11/24 05:21:45;;;;;;;10.75;1.80;;;;;;;9.54;100.00;101468.19;5278373;28;20030;-75
2023/11/24 05:24:16;;;;;;;16.83;1.83;;;;;;;9.52;100.00;101456.75;5265753;28;20102;-75
2023/11/24 05:26:47;;;;;;;12.10;1.85;;;;;;;9.37;100.00;101447.47;5262153;28;20094;-75
2023/11/24 05:29:17;;;;;;;12.35;2.25;;;;;;;9.45;100.00;101454.81;5273430;28;20379;-74
2023/11/24 05:31:50;;;;;;;14.98;2.45;;;;;;;9.51;100.00;101456.91;5270304;28;20036;-74
2023/11/24 05:34:20;;;;;;;15.73;1.80;;;;;;;9.50;100.00;101453.38;5272212;28;20039;-74
2023/11/24 05:36:51;;;;;;;11.45;1.85;;;;;;;9.40;100.00;101446.38;5273386;28;20032;-74
2023/11/24 05:39:22;;;;;;;16.35;2.72;;;;;;;9.50;100.00;101449.88;5267665;28;20052;-74
2023/11/24 05:41:52;;;;;;;17.38;1.77;;;;;;;9.47;100.00;101456.34;5272737;28;20374;-74
2023/11/24 05:44:22;;;;;;;16.38;3.42;;;;;;;9.48;100.00;101451.81;5271493;28;20032;-74
2023/11/24 05:46:53;;;;;;;23.85;2.22;;;;;;;9.32;100.00;101449.75;5273019;28;20020;-75
2023/11/24 05:49:23;;;;;;;14.88;1.55;;;;;;;9.37;100.00;101444.81;5272855;28;20047;-75
2023/11/24 05:51:54;;;;;;;11.50;1.65;;;;;;;9.31;100.00;101424.81;5270858;28;20032;-75
2023/11/24 05:54:24;;;;;;;11.65;1.80;;;;;;;9.27;100.00;101439.47;5274186;28;20040;-74
2023/11/24 05:56:55;;;;;;;13.95;1.95;;;;;;;9.28;100.00;101435.78;5270318;28;20027;-75
2023/11/24 05:59:25;;;;;;;18.25;3.05;;;;;;;9.28;100.00;101445.66;5269946;28;20081;-75
2023/11/24 06:01:56;;;;;;;12.05;1.90;;;;;;;9.11;100.00;101439.22;5275972;28;20087;-74
2023/11/24 06:04:27;;;;;;;17.23;2.90;;;;;;;9.03;100.00;101450.59;5265171;28;20085;-75
2023/11/24 06:06:57;;;;;;;22.92;2.38;;;;;;;9.08;100.00;101445.66;5268022;28;20482;-75
2023/11/24 06:09:29;;;;;;;12.93;2.20;;;;;;;9.02;100.00;101438.22;5272543;28;20745;-75
2023/11/24 06:11:59;;;;;;;12.88;1.88;;;;;;;9.00;100.00;101421.47;5267803;28;20052;-75
2023/11/24 06:14:30;;;;;;;16.08;2.35;;;;;;;9.05;100.00;101421.88;5276627;27;20100;-75
2023/11/24 06:17:02;;;;;;;15.13;2.10;;;;;;;8.94;100.00;101408.66;5264572;28;20764;-75
2023/11/24 06:19:32;;;;;;;11.88;1.33;;;;;;;8.97;100.00;101397.66;5263654;28;20027;-74
2023/11/24 06:22:03;;;;;;;6.85;1.33;;;;;;;8.98;100.00;101415.41;5270761;28;20019;-74
2023/11/24 06:24:33;;;;;;;11.13;1.77;;;;;;;9.06;100.00;101412.88;5275699;28;20150;-74
2023/11/24 06:27:04;;;;;;;9.52;1.83;;;;;;;9.05;100.00;101432.59;5270899;28;20384;-74
2023/11/24 06:29:35;;;;;;;14.13;1.92;;;;;;;9.08;100.00;101424.25;5272435;28;20116;-74
2023/11/24 06:32:07;;;;;;;12.95;1.70;;;;;;;9.12;100.00;101434.69;5275234;28;20039;-74
2023/11/24 06:34:38;;;;;;;16.85;1.88;;;;;;;8.91;100.00;101433.00;5271159;28;20024;-74
2023/11/24 06:37:08;;;;;;;14.45;2.15;;;;;;;8.85;100.00;101428.25;5266930;28;20334;-75
2023/11/24 06:39:39;;;;;;;30.30;10.25;;;;;;;8.87;100.00;101436.09;5262682;28;20595;-75
2023/11/24 06:42:10;;;;;;;113.53;35.35;;;;;;;8.87;100.00;101438.78;5269620;28;20173;-75
2023/11/24 06:44:40;;;;;;;17.40;4.47;;;;;;;8.70;100.00;101435.00;5272434;28;20430;-75
2023/11/24 06:47:11;;;;;;;21.10;2.33;;;;;;;8.74;100.00;101431.06;5272432;28;20035;-74
2023/11/24 06:49:42;;;;;;;15.32;3.47;;;;;;;8.79;100.00;101436.84;5273003;28;20070;-74
2023/11/24 06:52:12;;;;;;;22.27;6.40;;;;;;;8.88;100.00;101435.97;5273764;28;20027;-74
2023/11/24 06:54:43;;;;;;;24.55;4.45;;;;;;;8.95;100.00;101431.75;5272643;28;20370;-74
2023/11/24 06:57:14;;;;;;;7.90;2.28;;;;;;;8.90;100.00;101425.97;5274454;28;20583;-74
2023/11/24 06:59:45;;;;;;;11.27;2.00;;;;;;;8.99;100.00;101422.47;5279174;28;20481;-74
2023/11/24 07:02:19;;;;;;;12.80;1.58;;;;;;;8.97;100.00;101432.44;5277442;28;20033;-74
2023/11/24 07:04:50;;;;;;;14.57;2.55;;;;;;;8.89;100.00;101424.28;5269706;28;20166;-75
2023/11/24 07:07:21;;;;;;;13.05;1.90;;;;;;;8.86;100.00;101429.91;5276001;28;20019;-74
2023/11/24 07:09:51;;;;;;;7.88;1.40;;;;;;;8.86;100.00;101424.56;5272667;28;20032;-74
2023/11/24 07:12:22;;;;;;;13.75;2.05;;;;;;;9.00;100.00;101437.53;5278231;28;20035;-74
2023/11/24 07:14:52;;;;;;;11.38;2.80;;;;;;;8.92;100.00;101436.53;5276725;28;20023;-74
2023/11/24 07:17:23;;;;;;;7.47;1.58;;;;;;;8.86;100.00;101426.41;5276138;28;20031;-74
2023/11/24 07:19:54;;;;;;;16.00;2.40;;;;;;;8.70;100.00;101425.13;5268460;28;20114;-74
2023/11/24 07:22:27;;;;;;;14.07;2.33;;;;;;;8.73;100.00;101416.81;5278698;28;20035;-74
2023/11/24 07:24:57;;;;;;;11.40;2.28;;;;;;;8.85;100.00;101417.53;5274013;28;20562;-74
2023/11/24 07:27:28;;;;;;;26.48;2.15;;;;;;;8.93;100.00;101422.16;5274263;28;20139;-74
2023/11/24 07:29:58;;;;;;;11.02;2.60;;;;;;;8.75;100.00;101428.22;5271646;28;20039;-74
2023/11/24 07:32:29;;;;;;;16.17;2.10;;;;;;;8.80;100.00;101427.81;5271931;28;20024;-75
2023/11/24 07:34:59;;;;;;;19.02;2.50;;;;;;;8.74;100.00;101426.53;5271426;28;20020;-76
2023/11/24 07:37:30;;;;;;;14.88;2.42;;;;;;;8.72;100.00;101433.84;5277830;28;20084;-75
2023/11/24 07:40:06;;;;;;;16.73;1.98;;;;;;;8.70;100.00;101441.19;5268080;28;20020;-75
2023/11/24 07:42:37;;;;;;;12.63;1.98;;;;;;;8.54;100.00;101422.16;5270269;28;20028;-75
2023/11/24 07:45:10;;;;;;;17.15;2.53;;;;;;;8.60;100.00;101431.47;5276153;28;20073;-75
2023/11/24 07:47:40;;;;;;;16.77;3.67;;;;;;;8.64;100.00;101430.19;5274174;28;20057;-75
2023/11/24 07:50:11;;;;;;;15.25;3.40;;;;;;;8.70;100.00;101432.31;5278505;28;20027;-75
2023/11/24 07:52:43;;;;;;;16.73;1.98;;;;;;;8.45;100.00;101420.31;5275170;28;20042;-74
2023/11/24 07:55:14;;;;;;;13.77;2.85;;;;;;;8.39;100.00;101416.38;5268741;28;20051;-75
2023/11/24 07:57:44;;;;;;;24.63;2.92;;;;;;;8.59;100.00;101403.88;5271823;28;20024;-74
2023/11/24 08:00:17;;;;;;;7.38;1.52;;;;;;;8.49;100.00;101406.53;5273882;28;20122;-75
2023/11/24 08:02:47;;;;;;;14.20;1.48;;;;;;;8.49;100.00;101400.34;5276735;28;20076;-74
2023/11/24 08:05:18;;;;;;;8.65;1.65;;;;;;;8.58;100.00;101407.50;5271810;28;20481;-74
2023/11/24 08:07:48;;;;;;;11.48;1.75;;;;;;;8.73;100.00;101402.59;5272033;28;20643;-74
2023/11/24 08:10:19;;;;;;;10.10;1.30;;;;;;;8.75;100.00;101393.44;5275791;28;20031;-74
2023/11/24 08:12:49;;;;;;;5.82;1.63;;;;;;;8.70;100.00;101382.34;5268697;28;20036;-74
2023/11/24 08:15:20;;;;;;;9.38;1.27;;;;;;;8.88;100.00;101384.28;5277768;28;20054;-74
2023/11/24 08:17:51;;;;;;;10.60;2.63;;;;;;;8.89;100.00;101381.47;5271735;28;20031;-74
2023/11/24 08:20:22;;;;;;;14.63;1.55;;;;;;;8.92;100.00;101386.53;5271952;28;20046;-74
2023/11/24 08:22:54;;;;;;;8.63;1.10;;;;;;;8.86;100.00;101383.59;5270181;28;20435;-74
2023/11/24 08:25:24;;;;;;;7.60;1.10;;;;;;;8.82;100.00;101359.78;5277878;28;20053;-74
2023/11/24 08:27:55;;;;;;;6.05;1.40;;;;;;;8.92;100.00;101381.19;5272307;28;20026;-74
2023/11/24 08:30:25;;;;;;;14.93;7.93;;;;;;;8.92;100.00;101375.81;5267159;28;20122;-74
2023/11/24 08:32:56;;;;;;;12.65;2.95;;;;;;;8.94;100.00;101379.22;5272109;28;20020;-74
2023/11/24 08:35:26;;;;;;;6.78;1.38;;;;;;;8.82;100.00;101391.03;5277943;28;20552;-74
2023/11/24 08:37:57;;;;;;;4.13;1.10;;;;;;;8.86;100.00;101384.44;5273596;28;20321;-74
2023/11/24 08:40:27;;;;;;;7.57;1.52;;;;;;;8.74;100.00;101396.28;5272001;28;20028;-74
2023/11/24 08:42:58;;;;;;;8.20;1.30;;;;;;;8.60;100.00;101394.03;5272087;28;20020;-74
2023/11/24 08:45:28;;;;;;;8.07;1.15;;;;;;;8.51;100.00;101393.03;5271934;28;20020;-74
2023/11/24 08:47:59;;;;;;;10.85;1.25;;;;;;;8.43;100.00;101391.03;5270856;28;20100;-74
2023/11/24 08:50:31;;;;;;;5.45;0.90;;;;;;;8.56;100.00;101388.09;5273257;28;20024;-75
2023/11/24 08:53:01;;;;;;;7.72;1.05;;;;;;;8.54;100.00;101390.91;5268447;28;20023;-75
2023/11/24 08:55:32;;;;;;;13.23;1.65;;;;;;;8.30;100.00;101380.59;5269446;27;20039;-75
2023/11/24 08:58:03;;;;;;;7.45;1.58;;;;;;;8.47;100.00;101379.06;5271148;28;20024;-75
2023/11/24 09:00:35;;;;;;;11.27;1.38;;;;;;;8.49;100.00;101369.09;5269408;28;20446;-74
2023/11/24 09:03:05;;;;;;;6.28;1.30;;;;;;;8.55;100.00;101381.06;5269633;28;20038;-75
2023/11/24 09:05:36;;;;;;;10.80;1.50;;;;;;;8.64;100.00;101374.88;5271918;28;20388;-74
2023/11/24 09:08:06;;;;;;;9.60;1.20;;;;;;;8.58;100.00;101356.69;5271487;28;20055;-74
2023/11/24 09:10:36;;;;;;;9.50;1.58;;;;;;;8.72;100.00;101366.13;5272543;27;20023;-74
2023/11/24 09:13:07;;;;;;;6.72;1.40;;;;;;;8.79;100.00;101369.94;5267518;28;20028;-74
2023/11/24 09:15:38;;;;;;;10.30;1.70;;;;;;;8.99;100.00;101368.94;5272715;28;20384;-74
2023/11/24 09:18:09;;;;;;;6.45;1.63;;;;;;;9.13;100.00;101369.47;5268358;28;20039;-74
2023/11/24 09:20:39;;;;;;;6.93;1.65;;;;;;;9.12;100.00;101368.63;5273901;28;20648;-74
2023/11/24 09:23:10;;;;;;;18.08;2.75;;;;;;;9.22;100.00;101361.41;5265228;28;20080;-74
2023/11/24 09:25:40;;;;;;;10.93;2.75;;;;;;;9.21;100.00;101351.69;5271410;28;20076;-74
2023/11/24 09:28:11;;;;;;;8.15;1.52;;;;;;;9.20;100.00;101352.69;5271712;28;20037;-74
2023/11/24 09:30:42;;;;;;;6.65;1.38;;;;;;;8.99;100.00;101339.50;5266510;28;20480;-74
2023/11/24 09:33:13;;;;;;;14.07;1.73;;;;;;;9.03;100.00;101340.03;5264748;28;20190;-74
2023/11/24 09:35:44;;;;;;;9.77;1.50;;;;;;;8.96;100.00;101345.13;5273952;28;20422;-74
2023/11/24 09:38:15;;;;;;;12.63;1.88;;;;;;;8.82;100.00;101358.94;5267616;28;20122;-75
2023/11/24 09:40:49;;;;;;;7.28;2.08;;;;;;;8.51;100.00;101356.41;5266757;28;20420;-75
2023/11/24 09:43:20;;;;;;;11.57;1.60;;;;;;;8.44;100.00;101357.13;5274073;28;20030;-75
2023/11/24 09:45:50;;;;;;;18.38;2.65;;;;;;;8.20;100.00;101361.00;5266312;28;20043;-75
2023/11/24 09:48:22;;;;;;;7.60;1.15;;;;;;;8.19;100.00;101356.66;5251547;28;20028;-75
2023/11/24 09:50:53;;;;;;;10.45;1.85;;;;;;;8.29;100.00;101359.34;5268585;27;20055;-74
2023/11/24 09:53:33;;;;;;;14.95;5.70;;;;;;;8.31;100.00;101368.06;5266951;28;20554;-74
2023/11/24 09:56:04;;;;;;;15.35;2.35;;;;;;;8.32;100.00;101365.22;5269137;28;20141;-74
2023/11/24 09:58:35;;;;;;;11.02;1.60;;;;;;;8.35;100.00;101357.94;5270759;28;20404;-75
2023/11/24 10:01:21;;;;;;;11.73;2.55;;;;;;;8.35;100.00;101368.63;5263037;28;20106;-74
2023/11/24 10:03:55;;;;;;;11.73;1.83;;;;;;;8.24;100.00;101362.44;5264106;28;20024;-74
2023/11/24 10:06:27;;;;;;;10.63;2.53;;;;;;;8.32;100.00;101375.09;5267164;28;20024;-75
2023/11/24 10:08:57;;;;;;;10.23;2.20;;;;;;;8.29;100.00;101375.38;5269028;28;20036;-74
2023/11/24 10:11:29;;;;;;;5.22;1.33;;;;;;;8.10;100.00;101367.31;5274994;28;20023;-75
2023/11/24 10:14:00;;;;;;;9.82;1.40;;;;;;;8.00;100.00;101373.47;5267604;28;20020;-74
2023/11/24 10:16:30;;;;;;;4.57;1.60;;;;;;;8.01;100.00;101355.63;5265977;28;20027;-75
2023/11/24 10:19:04;;;;;;;12.27;2.00;;;;;;;8.12;100.00;101338.63;5268738;28;20034;-75
2023/11/24 10:21:36;;;;;;;8.43;1.23;;;;;;;8.07;100.00;101341.72;5271302;28;20031;-75
2023/11/24 10:24:07;;;;;;;7.35;1.25;;;;;;;7.90;100.00;101353.91;5268076;28;20020;-75
2023/11/24 10:26:40;;;;;;;8.10;1.40;;;;;;;8.15;100.00;101338.34;5268189;28;20069;-74
2023/11/24 10:29:11;;;;;;;5.50;0.98;;;;;;;8.05;100.00;101339.19;5269823;28;20024;-75
2023/11/24 10:31:44;;;;;;;7.45;1.20;;;;;;;8.21;100.00;101337.78;5269916;28;20072;-74
2023/11/24 10:34:16;;;;;;;10.07;1.13;;;;;;;8.35;100.00;101325.84;5273169;28;20616;-74
2023/11/24 10:36:47;;;;;;;3.85;1.20;;;;;;;8.42;100.00;101330.53;5272347;28;20137;-74
2023/11/24 10:39:21;;;;;;;12.93;2.35;;;;;;;8.62;100.00;101326.00;5268239;28;20036;-74
2023/11/24 10:41:54;;;;;;;6.20;1.52;;;;;;;8.79;100.00;101329.81;5273361;28;20403;-74
2023/11/24 10:44:26;;;;;;;6.38;1.38;;;;;;;8.69;100.00;101308.44;5271120;28;20027;-74
2023/11/24 10:47:02;;;;;;;9.45;1.48;;;;;;;8.80;100.00;101308.25;5269267;28;20098;-74
2023/11/24 10:49:41;;;;;;;7.28;1.23;;;;;;;8.83;100.00;101309.78;5274173;28;20039;-74
2023/11/24 10:52:22;;;;;;;13.02;3.53;;;;;;;8.79;100.00;101303.06;5268549;28;20032;-74
2023/11/24 10:55:00;;;;;;;17.92;4.30;;;;;;;8.77;100.00;101307.69;5269171;28;20123;-74
2023/11/24 10:57:31;;;;;;;11.85;2.67;;;;;;;8.84;100.00;101305.31;5274910;28;20020;-74
2023/11/24 11:00:03;;;;;;;8.18;2.08;;;;;;;8.91;100.00;101309.94;5270004;28;20028;-74
2023/11/24 11:02:39;;;;;;;13.82;2.22;;;;;;;8.91;100.00;101309.94;5271171;28;20031;-74
2023/11/24 11:05:17;;;;;;;6.35;1.77;;;;;;;8.93;100.00;101302.59;5269585;28;20028;-74
2023/11/24 11:07:53;;;;;;;14.18;1.80;;;;;;;8.94;100.00;101309.66;5271742;28;20496;-74
2023/11/24 11:10:30;;;;;;;9.10;1.55;;;;;;;8.85;100.00;101310.50;5273046;28;20437;-74
2023/11/24 11:13:03;;;;;;;6.75;1.35;;;;;;;8.75;100.00;101309.69;5268489;28;20027;-74
2023/11/24 11:15:37;;;;;;;12.73;1.48;;;;;;;8.35;100.00;101316.00;5274812;28;20024;-75
2023/11/24 11:18:14;;;;;;;14.20;1.80;;;;;;;7.90;100.00;101321.84;5263238;28;20024;-75
2023/11/24 11:20:45;;;;;;;6.03;1.20;;;;;;;7.58;100.00;101326.53;5259364;28;20028;-75
2023/11/24 11:23:15;;;;;;;8.07;1.30;;;;;;;7.16;100.00;101329.31;5270931;28;20039;-75
2023/11/24 11:25:50;;;;;;;6.47;1.10;;;;;;;7.25;100.00;101329.34;5268411;28;20027;-74
2023/11/24 11:28:23;;;;;;;6.88;0.80;;;;;;;6.81;100.00;101321.66;5271588;28;20445;-74
2023/11/24 11:30:57;;;;;;;7.25;0.80;;;;;;;6.96;100.00;101307.00;5268329;28;20028;-75
2023/11/24 11:33:29;;;;;;;6.88;1.35;;;;;;;7.14;100.00;101293.91;5271245;28;20028;-74
2023/11/24 11:36:05;;;;;;;7.30;1.13;;;;;;;7.26;100.00;101284.81;5269782;28;20425;-74